createdAt,value
2019-06-10T00:01:44.516Z,19.92
2019-06-10T00:06:46.987Z,19.88
2019-06-10T00:11:51.493Z,19.90
2019-06-10T00:16:51.905Z,19.98
2019-06-10T00:21:54.360Z,20.07
2019-06-10T00:26:57.771Z,19.99
2019-06-10T00:32:03.300Z,20.13
2019-06-10T00:37:04.312Z,20.05
2019-06-10T00:42:07.608Z,19.82
2019-06-10T00:47:08.253Z,19.87
2019-06-10T00:52:11.702Z,19.52
2019-06-10T00:57:12.464Z,19.67
2019-06-10T01:02:14.621Z,19.66
2019-06-10T01:07:16.603Z,19.59
2019-06-10T01:12:21.050Z,19.67
2019-06-10T01:17:21.538Z,19.56
2019-06-10T01:22:23.991Z,19.55
2019-06-10T01:27:26.679Z,19.71
2019-06-10T01:32:31.179Z,19.49
2019-06-10T01:37:31.623Z,19.32
2019-06-10T01:42:34.096Z,19.52
2019-06-10T01:47:36.563Z,19.22
2019-06-10T01:52:40.970Z,19.17
2019-06-10T01:57:41.495Z,19.33
2019-06-10T02:02:44.926Z,19.55
2019-06-10T02:07:46.427Z,19.65
2019-06-10T02:12:50.851Z,19.64
2019-06-10T02:17:51.351Z,19.67
2019-06-10T02:22:53.840Z,19.77
2019-06-10T02:27:56.315Z,19.54
2019-06-10T02:32:58.790Z,19.67
2019-06-10T02:38:03.484Z,19.65
2019-06-10T02:43:03.716Z,19.74
2019-06-10T02:48:06.203Z,19.71
2019-06-10T02:53:08.637Z,19.65
2019-06-10T02:58:13.760Z,19.71
2019-06-10T03:03:15.142Z,19.62
2019-06-10T03:08:16.226Z,19.57
2019-06-10T03:13:19.682Z,19.53
2019-06-10T03:18:22.486Z,19.66
2019-06-10T03:23:26.368Z,19.59
2019-06-10T03:28:25.920Z,19.33
2019-06-10T03:33:36.735Z,19.18
2019-06-10T03:38:32.558Z,19.17
2019-06-10T03:43:33.337Z,19.19
2019-06-10T03:48:35.791Z,19.25
2019-06-10T03:53:38.276Z,19.47
2019-06-10T03:58:43.003Z,19.24
2019-06-10T04:03:43.226Z,19.16
2019-06-10T04:08:45.683Z,19.31
2019-06-10T04:13:48.156Z,19.43
2019-06-10T04:18:50.617Z,19.53
2019-06-10T04:23:53.125Z,19.81
2019-06-10T04:28:55.596Z,19.94
2019-06-10T04:33:58.050Z,20.08
2019-06-10T04:39:03.017Z,20.22
2019-06-10T04:44:03.001Z,20.43
2019-06-10T04:49:05.469Z,21.14
2019-06-10T04:54:07.951Z,21.51
2019-06-10T04:59:12.494Z,21.95
2019-06-10T05:04:12.884Z,22.19
2019-06-10T05:09:15.353Z,22.41
2019-06-10T05:14:17.813Z,23.27
2019-06-10T05:19:20.296Z,23.36
2019-06-10T05:24:25.202Z,23.23
2019-06-10T05:29:27.838Z,22.88
2019-06-10T05:34:28.775Z,22.29
2019-06-10T05:39:30.733Z,21.80
2019-06-10T05:44:34.576Z,21.62
2019-06-10T05:49:36.176Z,21.69
2019-06-10T05:54:37.624Z,21.61
2019-06-10T05:59:40.092Z,21.46
2019-06-10T06:04:42.949Z,21.61
2019-06-10T06:09:45.252Z,21.82
2019-06-10T06:14:47.715Z,22.57
2019-06-10T06:19:50.174Z,23.02
2019-06-10T06:24:52.638Z,23.23
2019-06-10T06:29:55.099Z,25.22
2019-06-10T06:34:57.556Z,25.85
2019-06-10T06:40:02.619Z,25.80
2019-06-10T06:45:03.091Z,25.51
2019-06-10T06:50:04.964Z,25.44
2019-06-10T06:55:07.444Z,24.94
2019-06-10T07:00:37.226Z,24.57
2019-06-10T07:05:12.672Z,23.65
2019-06-10T07:10:14.979Z,23.21
2019-06-10T07:15:17.498Z,23.11
2019-06-10T07:20:19.947Z,23.16
2019-06-10T07:25:23.048Z,23.11
2019-06-10T07:30:25.088Z,22.69
2019-06-10T07:35:27.545Z,22.50
2019-06-10T07:40:30.018Z,22.50
2019-06-10T07:45:33.796Z,22.85
2019-06-10T07:50:36.184Z,22.70
2019-06-10T07:55:37.919Z,22.56
2019-06-10T08:00:40.817Z,22.73
2019-06-10T08:05:44.397Z,22.52
2019-06-10T08:10:46.420Z,22.39
2019-06-10T08:15:48.365Z,21.95
2019-06-10T08:20:49.798Z,22.20
2019-06-10T08:25:57.257Z,22.01
2019-06-10T08:30:54.746Z,21.82
2019-06-10T08:36:00.472Z,21.65
2019-06-10T08:40:59.702Z,22.09
2019-06-10T08:46:02.727Z,22.33
2019-06-10T08:51:04.628Z,22.85
2019-06-10T08:56:07.197Z,23.60
2019-06-10T09:01:09.601Z,24.71
2019-06-10T09:06:13.283Z,29.47
2019-06-10T09:11:14.576Z,28.64
2019-06-10T09:16:19.511Z,26.23
2019-06-10T09:21:19.531Z,26.07
2019-06-10T09:26:22.917Z,34.00
2019-06-10T09:31:24.461Z,30.20
2019-06-10T09:36:26.944Z,27.29
2019-06-10T09:41:39.959Z,25.71
2019-06-10T09:46:33.045Z,25.22
2019-06-10T09:51:34.588Z,31.71
2019-06-10T09:56:37.087Z,42.70
2019-06-10T10:01:40.879Z,40.59
2019-06-10T10:06:44.835Z,37.44
2019-06-10T10:11:47.392Z,36.52
2019-06-10T10:16:52.261Z,33.53
2019-06-10T10:21:55.148Z,31.84
2019-06-10T10:26:57.119Z,32.64
2019-06-10T10:31:54.422Z,32.13
2019-06-10T10:36:57.450Z,34.68
2019-06-10T10:41:59.389Z,34.48
2019-06-10T10:47:03.632Z,32.81
2019-06-10T10:52:04.423Z,30.54
2019-06-10T10:57:06.909Z,28.40
2019-06-10T11:02:09.674Z,27.54
2019-06-10T11:07:13.053Z,27.06
2019-06-10T11:12:15.296Z,27.30
2019-06-10T11:17:17.761Z,27.97
2019-06-10T11:22:23.189Z,29.96
2019-06-10T11:27:22.820Z,29.27
2019-06-10T11:32:25.207Z,28.50
2019-06-10T11:37:27.689Z,27.72
2019-06-10T11:42:30.166Z,26.89
2019-06-10T11:47:33.080Z,26.41
2019-06-10T11:52:35.126Z,26.31
2019-06-10T11:57:37.633Z,28.20
2019-06-10T12:02:42.349Z,30.63
2019-06-10T12:07:42.868Z,31.78
2019-06-10T12:12:45.118Z,33.88
2019-06-10T12:17:52.662Z,30.33
2019-06-10T12:22:50.080Z,29.14
2019-06-10T12:27:55.910Z,29.94
2019-06-10T12:32:58.728Z,28.11
2019-06-10T12:37:59.816Z,26.49
2019-06-10T12:43:01.979Z,25.63
2019-06-10T12:48:06.370Z,25.01
2019-06-10T12:53:07.207Z,24.83
2019-06-10T12:58:07.571Z,24.79
2019-06-10T13:03:10.060Z,24.50
2019-06-10T13:08:13.294Z,24.32
2019-06-10T13:13:15.014Z,24.01
2019-06-10T13:18:19.420Z,24.03
2019-06-10T13:23:25.343Z,24.20
2019-06-10T13:28:22.555Z,24.28
2019-06-10T13:33:24.968Z,24.44
2019-06-10T13:38:27.621Z,24.37
2019-06-10T13:43:34.068Z,24.27
2019-06-10T13:48:35.556Z,24.43
2019-06-10T13:53:38.075Z,24.66
2019-06-10T13:58:45.051Z,24.66
2019-06-10T14:03:43.921Z,24.64
2019-06-10T14:08:45.563Z,24.16
2019-06-10T14:13:48.056Z,23.56
2019-06-10T14:18:51.722Z,23.48
2019-06-10T14:23:53.811Z,23.41
2019-06-10T14:28:55.603Z,23.02
2019-06-10T14:33:58.135Z,22.73
2019-06-10T14:39:00.614Z,22.86
2019-06-10T14:44:04.472Z,23.03
2019-06-10T14:49:06.802Z,23.30
2019-06-10T14:54:09.360Z,23.93
2019-06-10T14:59:14.102Z,24.67
2019-06-10T15:04:15.132Z,25.17
2019-06-10T15:09:15.824Z,25.04
2019-06-10T15:14:18.273Z,24.80
2019-06-10T15:19:26.359Z,24.56
2019-06-10T15:24:23.897Z,25.02
2019-06-10T15:29:25.907Z,24.85
2019-06-10T15:34:28.475Z,24.75
2019-06-10T15:39:33.328Z,24.42
2019-06-10T15:44:48.788Z,24.15
2019-06-10T15:49:36.083Z,23.65
2019-06-10T15:54:42.547Z,23.36
2019-06-10T15:59:42.891Z,23.09
2019-06-10T16:04:45.389Z,22.83
2019-06-10T16:09:47.863Z,22.70
2019-06-10T16:14:52.637Z,22.65
2019-06-10T16:19:53.278Z,22.59
2019-06-10T16:24:55.461Z,22.52
2019-06-10T16:29:57.937Z,22.52
2019-06-10T16:35:00.525Z,22.46
2019-06-10T16:40:03.391Z,22.36
2019-06-10T16:45:05.466Z,22.26
2019-06-10T16:50:07.998Z,22.28
2019-06-10T16:55:12.604Z,22.28
2019-06-10T17:00:14.534Z,22.15
2019-06-10T17:05:15.556Z,22.05
2019-06-10T17:10:18.104Z,22.16
2019-06-10T17:15:21.090Z,22.13
2019-06-10T17:20:23.687Z,22.00
2019-06-10T17:25:26.924Z,21.90
2019-06-10T17:30:28.479Z,22.03
2019-06-10T17:35:36.424Z,22.07
2019-06-10T17:40:33.717Z,22.08
2019-06-10T17:45:35.798Z,22.06
2019-06-10T17:50:38.387Z,21.98
2019-06-10T17:55:40.900Z,21.82
2019-06-10T18:00:43.434Z,21.71
2019-06-10T18:05:45.954Z,21.66
2019-06-10T18:10:48.444Z,21.46
2019-06-10T18:15:53.179Z,21.64
2019-06-10T18:20:53.889Z,21.86
2019-06-10T18:25:56.041Z,21.80
2019-06-10T18:30:58.583Z,21.49
2019-06-10T18:36:01.077Z,21.38
2019-06-10T18:41:03.608Z,21.17
2019-06-10T18:46:06.089Z,21.04
2019-06-10T18:51:08.594Z,20.89
2019-06-10T18:56:12.849Z,20.72
2019-06-10T19:01:13.567Z,20.66
2019-06-10T19:06:16.086Z,20.67
2019-06-10T19:11:18.613Z,20.69
2019-06-10T19:16:23.296Z,20.81
2019-06-10T19:21:23.589Z,20.91
2019-06-10T19:26:26.066Z,20.80
2019-06-10T19:31:28.569Z,20.63
2019-06-10T19:36:31.496Z,20.63
2019-06-10T19:41:36.599Z,20.59
2019-06-10T19:46:36.099Z,20.49
2019-06-10T19:51:38.902Z,20.63
2019-06-10T19:56:41.691Z,20.66
2019-06-10T20:01:46.669Z,20.74
2019-06-10T20:06:50.328Z,20.81
2019-06-10T20:11:48.608Z,20.82
2019-06-10T20:16:52.725Z,20.80
2019-06-10T20:21:53.796Z,20.78
2019-06-10T20:26:56.298Z,20.65
2019-06-10T20:31:58.824Z,20.62
2019-06-10T20:37:04.313Z,20.49
2019-06-10T20:42:03.807Z,20.35
2019-06-10T20:47:06.311Z,20.37
2019-06-10T20:52:14.023Z,20.19
2019-06-10T20:57:12.159Z,20.03
2019-06-10T21:02:13.758Z,20.14
2019-06-10T21:07:16.243Z,20.13
2019-06-10T21:12:18.736Z,20.15
2019-06-10T21:17:22.800Z,20.14
2019-06-10T21:22:23.728Z,20.14
2019-06-10T21:27:26.257Z,20.14
2019-06-10T21:32:28.716Z,20.07
2019-06-10T21:37:32.015Z,19.99
2019-06-10T21:42:33.698Z,19.96
2019-06-10T21:47:36.184Z,19.85
2019-06-10T21:52:38.663Z,19.82
2019-06-10T21:57:43.023Z,19.80
2019-06-10T22:02:45.174Z,19.74
2019-06-10T22:07:46.111Z,19.66
2019-06-10T22:12:48.627Z,19.68
2019-06-10T22:17:53.361Z,19.58
2019-06-10T22:22:55.094Z,19.64
2019-06-10T22:27:56.213Z,19.59
2019-06-10T22:32:58.585Z,19.59
2019-06-10T22:38:02.540Z,19.51
2019-06-10T22:43:03.575Z,19.48
2019-06-10T22:48:06.044Z,19.52
2019-06-10T22:53:08.535Z,19.42
2019-06-10T22:58:14.304Z,19.37
2019-06-10T23:03:13.480Z,19.37
2019-06-10T23:08:15.940Z,19.31
2019-06-10T23:13:18.428Z,19.33
2019-06-10T23:18:22.415Z,19.29
2019-06-10T23:23:23.537Z,19.37
2019-06-10T23:28:25.923Z,19.35
2019-06-10T23:33:28.397Z,19.31
2019-06-10T23:38:32.931Z,19.23
2019-06-10T23:43:33.342Z,19.25
2019-06-10T23:48:35.798Z,19.23
2019-06-10T23:53:38.255Z,19.16
2019-06-10T23:58:43.159Z,19.20
